sensor_id;sensor_type;location;lat;lon;timestamp;pressure;altitude;pressure_sealevel;temperature;humidity
6851;BME280;3464;42.728;23.296;2022-08-25T00:01:29;95107.75;;;28.27;63.82
6851;BME280;3464;42.728;23.296;2022-08-25T00:04:17;95103.75;;;28.43;63.41
6851;BME280;3464;42.728;23.296;2022-08-25T00:07:06;95103.91;;;28.34;63.56
6851;BME280;3464;42.728;23.296;2022-08-25T00:09:56;95099.30;;;28.25;63.63
6851;BME280;3464;42.728;23.296;2022-08-25T00:12:45;95094.88;;;28.40;63.53
6851;BME280;3464;42.728;23.296;2022-08-25T00:15:34;95094.97;;;28.25;64.04
6851;BME280;3464;42.728;23.296;2022-08-25T00:18:23;95100.84;;;28.41;63.52
6851;BME280;3464;42.728;23.296;2022-08-25T00:21:12;95092.13;;;28.42;63.42
6851;BME280;3464;42.728;23.296;2022-08-25T00:24:01;95083.48;;;28.56;63.02
6851;BME280;3464;42.728;23.296;2022-08-25T00:26:52;95088.57;;;28.44;63.19
6851;BME280;3464;42.728;23.296;2022-08-25T00:29:40;95087.83;;;28.15;64.07
6851;BME280;3464;42.728;23.296;2022-08-25T00:32:30;95088.62;;;28.03;64.72
6851;BME280;3464;42.728;23.296;2022-08-25T00:35:19;95093.64;;;27.92;65.23
6851;BME280;3464;42.728;23.296;2022-08-25T00:38:10;95093.94;;;28.07;64.80
6851;BME280;3464;42.728;23.296;2022-08-25T00:40:59;95090.91;;;27.87;65.48
6851;BME280;3464;42.728;23.296;2022-08-25T00:43:52;95090.60;;;27.92;65.60
6851;BME280;3464;42.728;23.296;2022-08-25T00:46:42;95091.78;;;27.65;66.49
6851;BME280;3464;42.728;23.296;2022-08-25T00:49:35;95090.85;;;27.66;66.68
6851;BME280;3464;42.728;23.296;2022-08-25T00:52:29;95096.06;;;27.45;67.19
6851;BME280;3464;42.728;23.296;2022-08-25T00:55:22;95097.30;;;27.45;67.35
6851;BME280;3464;42.728;23.296;2022-08-25T00:58:15;95103.40;;;27.58;66.31
6851;BME280;3464;42.728;23.296;2022-08-25T01:01:01;95104.05;;;27.69;65.92
6851;BME280;3464;42.728;23.296;2022-08-25T01:03:51;95089.98;;;27.88;65.32
6851;BME280;3464;42.728;23.296;2022-08-25T01:06:41;95073.92;;;27.82;65.27
6851;BME280;3464;42.728;23.296;2022-08-25T01:09:30;95069.84;;;27.79;65.21
6851;BME280;3464;42.728;23.296;2022-08-25T01:12:19;95066.28;;;27.66;65.51
6851;BME280;3464;42.728;23.296;2022-08-25T01:15:09;95077.82;;;27.33;66.89
6851;BME280;3464;42.728;23.296;2022-08-25T01:17:57;95076.11;;;27.68;65.86
6851;BME280;3464;42.728;23.296;2022-08-25T01:20:48;95082.25;;;27.66;65.92
6851;BME280;3464;42.728;23.296;2022-08-25T01:23:36;95077.65;;;27.99;65.11
6851;BME280;3464;42.728;23.296;2022-08-25T01:26:27;95072.83;;;27.72;65.74
6851;BME280;3464;42.728;23.296;2022-08-25T01:29:15;95077.13;;;27.37;66.55
6851;BME280;3464;42.728;23.296;2022-08-25T01:32:06;95073.12;;;27.25;67.83
6851;BME280;3464;42.728;23.296;2022-08-25T01:34:54;95066.31;;;27.80;65.55
6851;BME280;3464;42.728;23.296;2022-08-25T01:37:43;95071.78;;;27.96;64.38
6851;BME280;3464;42.728;23.296;2022-08-25T01:40:33;95072.73;;;28.22;63.40
6851;BME280;3464;42.728;23.296;2022-08-25T01:43:37;95077.84;;;28.30;62.87
6851;BME280;3464;42.728;23.296;2022-08-25T01:46:27;95063.72;;;28.08;62.89
6851;BME280;3464;42.728;23.296;2022-08-25T01:49:17;95060.11;;;28.24;62.88
6851;BME280;3464;42.728;23.296;2022-08-25T01:52:11;95059.85;;;28.21;62.48
6851;BME280;3464;42.728;23.296;2022-08-25T01:54:58;95064.71;;;27.99;63.15
6851;BME280;3464;42.728;23.296;2022-08-25T01:57:47;95071.46;;;28.15;62.76
6851;BME280;3464;42.728;23.296;2022-08-25T02:00:36;95070.85;;;28.18;62.46
6851;BME280;3464;42.728;23.296;2022-08-25T02:03:26;95076.88;;;28.31;62.53
6851;BME280;3464;42.728;23.296;2022-08-25T02:06:17;95078.28;;;28.43;62.25
6851;BME280;3464;42.728;23.296;2022-08-25T02:09:05;95076.87;;;28.78;61.23
6851;BME280;3464;42.728;23.296;2022-08-25T02:11:54;95063.41;;;28.86;60.60
6851;BME280;3464;42.728;23.296;2022-08-25T02:14:42;95061.77;;;28.58;61.36
6851;BME280;3464;42.728;23.296;2022-08-25T02:17:32;95064.55;;;28.42;61.65
6851;BME280;3464;42.728;23.296;2022-08-25T02:20:20;95059.27;;;28.50;61.46
6851;BME280;3464;42.728;23.296;2022-08-25T02:23:10;95056.27;;;28.36;61.76
6851;BME280;3464;42.728;23.296;2022-08-25T02:25:59;95052.79;;;28.10;62.52
6851;BME280;3464;42.728;23.296;2022-08-25T02:28:49;95058.45;;;28.09;62.55
6851;BME280;3464;42.728;23.296;2022-08-25T02:31:38;95055.09;;;27.94;63.53
6851;BME280;3464;42.728;23.296;2022-08-25T02:34:26;95046.73;;;27.62;64.26
6851;BME280;3464;42.728;23.296;2022-08-25T02:37:16;95052.56;;;27.65;64.60
6851;BME280;3464;42.728;23.296;2022-08-25T02:40:05;95052.73;;;27.69;64.46
6851;BME280;3464;42.728;23.296;2022-08-25T02:42:54;95052.58;;;27.58;64.64
6851;BME280;3464;42.728;23.296;2022-08-25T02:45:43;95051.61;;;27.17;66.51
6851;BME280;3464;42.728;23.296;2022-08-25T02:48:32;95057.14;;;27.33;66.23
6851;BME280;3464;42.728;23.296;2022-08-25T02:51:21;95062.33;;;27.03;66.98
6851;BME280;3464;42.728;23.296;2022-08-25T02:54:10;95060.26;;;27.16;66.47
6851;BME280;3464;42.728;23.296;2022-08-25T02:56:59;95059.98;;;27.42;66.06
6851;BME280;3464;42.728;23.296;2022-08-25T02:59:48;95059.78;;;27.46;65.24
6851;BME280;3464;42.728;23.296;2022-08-25T03:02:37;95066.44;;;28.06;63.82
6851;BME280;3464;42.728;23.296;2022-08-25T03:05:26;95074.19;;;27.99;62.99
6851;BME280;3464;42.728;23.296;2022-08-25T03:08:15;95073.80;;;28.19;62.47
6851;BME280;3464;42.728;23.296;2022-08-25T03:11:04;95073.48;;;28.24;62.16
6851;BME280;3464;42.728;23.296;2022-08-25T03:13:53;95075.27;;;28.30;61.95
6851;BME280;3464;42.728;23.296;2022-08-25T03:16:42;95065.84;;;28.42;61.45
6851;BME280;3464;42.728;23.296;2022-08-25T03:19:31;95067.79;;;28.38;61.63
6851;BME280;3464;42.728;23.296;2022-08-25T03:22:21;95065.52;;;28.27;61.89
6851;BME280;3464;42.728;23.296;2022-08-25T03:25:10;95063.66;;;28.09;62.58
6851;BME280;3464;42.728;23.296;2022-08-25T03:28:06;95061.66;;;27.78;63.77
6851;BME280;3464;42.728;23.296;2022-08-25T03:30:54;95064.35;;;28.25;62.38
6851;BME280;3464;42.728;23.296;2022-08-25T03:33:43;95057.82;;;27.71;63.82
6851;BME280;3464;42.728;23.296;2022-08-25T03:36:32;95054.37;;;27.43;64.95
6851;BME280;3464;42.728;23.296;2022-08-25T03:39:21;95067.11;;;27.74;63.95
6851;BME280;3464;42.728;23.296;2022-08-25T03:42:09;95065.52;;;28.00;63.40
6851;BME280;3464;42.728;23.296;2022-08-25T03:45:01;95068.66;;;27.83;63.58
6851;BME280;3464;42.728;23.296;2022-08-25T03:47:49;95067.77;;;28.12;62.86
6851;BME280;3464;42.728;23.296;2022-08-25T03:50:42;95070.61;;;28.35;62.48
6851;BME280;3464;42.728;23.296;2022-08-25T03:53:26;95067.70;;;28.06;62.90
6851;BME280;3464;42.728;23.296;2022-08-25T03:56:15;95055.36;;;28.24;62.36
6851;BME280;3464;42.728;23.296;2022-08-25T03:59:04;95054.02;;;28.18;62.79
6851;BME280;3464;42.728;23.296;2022-08-25T04:01:54;95051.83;;;28.45;61.98
6851;BME280;3464;42.728;23.296;2022-08-25T04:04:43;95055.36;;;28.37;61.86
6851;BME280;3464;42.728;23.296;2022-08-25T04:07:33;95047.36;;;28.54;61.21
6851;BME280;3464;42.728;23.296;2022-08-25T04:10:23;95050.16;;;28.71;61.02
6851;BME280;3464;42.728;23.296;2022-08-25T04:13:12;95045.59;;;28.74;60.54
6851;BME280;3464;42.728;23.296;2022-08-25T04:16:03;95050.69;;;28.82;60.29
6851;BME280;3464;42.728;23.296;2022-08-25T04:18:51;95053.45;;;28.92;59.63
6851;BME280;3464;42.728;23.296;2022-08-25T04:21:40;95057.13;;;28.89;59.68
6851;BME280;3464;42.728;23.296;2022-08-25T04:24:29;95060.88;;;29.17;59.05
6851;BME280;3464;42.728;23.296;2022-08-25T04:27:18;95060.56;;;29.02;59.02
6851;BME280;3464;42.728;23.296;2022-08-25T04:30:07;95050.58;;;29.16;58.68
6851;BME280;3464;42.728;23.296;2022-08-25T04:32:56;95045.66;;;29.25;58.51
6851;BME280;3464;42.728;23.296;2022-08-25T04:35:46;95046.87;;;28.81;59.41
6851;BME280;3464;42.728;23.296;2022-08-25T04:38:34;95045.27;;;29.24;58.32
6851;BME280;3464;42.728;23.296;2022-08-25T04:41:23;95050.95;;;29.30;57.87
6851;BME280;3464;42.728;23.296;2022-08-25T04:44:12;95053.65;;;29.72;57.64
6851;BME280;3464;42.728;23.296;2022-08-25T04:47:02;95063.56;;;30.51;55.52
6851;BME280;3464;42.728;23.296;2022-08-25T04:49:51;95067.95;;;30.74;54.41
6851;BME280;3464;42.728;23.296;2022-08-25T04:52:40;95064.61;;;31.36;53.13
6851;BME280;3464;42.728;23.296;2022-08-25T04:55:28;95062.80;;;31.48;52.18
6851;BME280;3464;42.728;23.296;2022-08-25T04:58:18;95058.71;;;31.78;51.01
6851;BME280;3464;42.728;23.296;2022-08-25T05:01:10;95063.59;;;32.16;49.98
6851;BME280;3464;42.728;23.296;2022-08-25T05:04:00;95063.18;;;32.79;48.65
6851;BME280;3464;42.728;23.296;2022-08-25T05:06:48;95062.55;;;32.98;48.46
6851;BME280;3464;42.728;23.296;2022-08-25T05:09:38;95060.57;;;32.79;48.38
6851;BME280;3464;42.728;23.296;2022-08-25T05:12:28;95062.94;;;32.35;49.59
6851;BME280;3464;42.728;23.296;2022-08-25T05:15:17;95055.83;;;32.09;49.69
6851;BME280;3464;42.728;23.296;2022-08-25T05:18:11;95055.16;;;32.34;49.28
6851;BME280;3464;42.728;23.296;2022-08-25T05:21:03;95056.17;;;32.48;49.24
6851;BME280;3464;42.728;23.296;2022-08-25T05:23:54;95051.62;;;32.45;49.45
6851;BME280;3464;42.728;23.296;2022-08-25T05:26:43;95048.36;;;32.48;48.93
6851;BME280;3464;42.728;23.296;2022-08-25T05:29:33;95044.18;;;32.62;48.92
6851;BME280;3464;42.728;23.296;2022-08-25T05:32:21;95055.91;;;32.46;49.24
6851;BME280;3464;42.728;23.296;2022-08-25T05:35:11;95056.52;;;32.76;49.07
6851;BME280;3464;42.728;23.296;2022-08-25T05:38:00;95047.23;;;32.25;49.92
6851;BME280;3464;42.728;23.296;2022-08-25T05:40:52;95047.64;;;32.68;49.20
6851;BME280;3464;42.728;23.296;2022-08-25T05:43:39;95043.34;;;32.99;48.28
6851;BME280;3464;42.728;23.296;2022-08-25T05:46:28;95041.06;;;33.16;48.27
6851;BME280;3464;42.728;23.296;2022-08-25T05:49:18;95049.92;;;34.10;46.62
6851;BME280;3464;42.728;23.296;2022-08-25T05:52:07;95052.52;;;34.40;46.08
6851;BME280;3464;42.728;23.296;2022-08-25T05:54:55;95052.65;;;34.48;45.29
6851;BME280;3464;42.728;23.296;2022-08-25T05:57:45;95050.50;;;35.38;44.26
6851;BME280;3464;42.728;23.296;2022-08-25T06:00:34;95049.19;;;35.62;43.42
6851;BME280;3464;42.728;23.296;2022-08-25T06:03:23;95049.11;;;35.30;43.25
6851;BME280;3464;42.728;23.296;2022-08-25T06:06:14;95055.09;;;35.40;43.16
6851;BME280;3464;42.728;23.296;2022-08-25T06:09:02;95051.67;;;35.16;43.49
6851;BME280;3464;42.728;23.296;2022-08-25T06:11:51;95047.91;;;35.75;42.54
6851;BME280;3464;42.728;23.296;2022-08-25T06:14:41;95048.81;;;36.38;41.87
6851;BME280;3464;42.728;23.296;2022-08-25T06:17:30;95056.08;;;36.98;40.94
6851;BME280;3464;42.728;23.296;2022-08-25T06:20:25;95058.75;;;37.06;40.48
6851;BME280;3464;42.728;23.296;2022-08-25T06:23:13;95046.58;;;37.70;39.34
6851;BME280;3464;42.728;23.296;2022-08-25T06:26:03;95042.80;;;37.39;39.36
6851;BME280;3464;42.728;23.296;2022-08-25T06:28:52;95034.91;;;38.02;38.84
6851;BME280;3464;42.728;23.296;2022-08-25T06:31:42;95042.38;;;37.38;39.70
6851;BME280;3464;42.728;23.296;2022-08-25T06:34:32;95042.70;;;38.58;38.14
6851;BME280;3464;42.728;23.296;2022-08-25T06:37:21;95046.47;;;39.32;36.66
6851;BME280;3464;42.728;23.296;2022-08-25T06:40:09;95044.89;;;39.82;35.67
6851;BME280;3464;42.728;23.296;2022-08-25T06:42:58;95052.02;;;40.55;34.99
6851;BME280;3464;42.728;23.296;2022-08-25T06:45:47;95046.33;;;42.15;32.99
6851;BME280;3464;42.728;23.296;2022-08-25T06:48:37;95043.02;;;44.14;30.12
6851;BME280;3464;42.728;23.296;2022-08-25T06:51:26;95041.77;;;44.51;29.55
6851;BME280;3464;42.728;23.296;2022-08-25T06:54:16;95044.34;;;43.69;29.91
6851;BME280;3464;42.728;23.296;2022-08-25T06:57:05;95044.57;;;42.84;30.76
6851;BME280;3464;42.728;23.296;2022-08-25T06:59:54;95044.23;;;42.83;30.90
6851;BME280;3464;42.728;23.296;2022-08-25T07:02:43;95039.70;;;45.03;28.59
6851;BME280;3464;42.728;23.296;2022-08-25T07:05:32;95036.95;;;45.95;27.56
6851;BME280;3464;42.728;23.296;2022-08-25T07:08:21;95041.31;;;47.44;25.89
6851;BME280;3464;42.728;23.296;2022-08-25T07:11:14;95043.84;;;45.68;27.56
6851;BME280;3464;42.728;23.296;2022-08-25T07:14:04;95041.30;;;47.16;26.25
6851;BME280;3464;42.728;23.296;2022-08-25T07:16:52;95044.16;;;46.77;25.89
6851;BME280;3464;42.728;23.296;2022-08-25T07:19:41;95040.27;;;45.52;26.97
6851;BME280;3464;42.728;23.296;2022-08-25T07:22:31;95036.79;;;44.98;27.87
6851;BME280;3464;42.728;23.296;2022-08-25T07:25:21;95038.15;;;43.24;29.43
6851;BME280;3464;42.728;23.296;2022-08-25T07:28:11;95029.20;;;42.04;30.56
6851;BME280;3464;42.728;23.296;2022-08-25T07:31:01;95036.88;;;41.80;31.20
6851;BME280;3464;42.728;23.296;2022-08-25T07:33:50;95040.78;;;40.42;33.35
6851;BME280;3464;42.728;23.296;2022-08-25T07:36:44;95044.27;;;40.27;33.59
6851;BME280;3464;42.728;23.296;2022-08-25T07:39:34;95040.03;;;39.71;34.38
6851;BME280;3464;42.728;23.296;2022-08-25T07:42:23;95040.78;;;38.26;36.15
6851;BME280;3464;42.728;23.296;2022-08-25T07:45:12;95041.17;;;36.98;38.36
6851;BME280;3464;42.728;23.296;2022-08-25T07:48:03;95042.61;;;37.32;38.00
6851;BME280;3464;42.728;23.296;2022-08-25T07:50:51;95044.86;;;37.27;38.55
6851;BME280;3464;42.728;23.296;2022-08-25T07:53:40;95049.91;;;38.01;37.66
6851;BME280;3464;42.728;23.296;2022-08-25T07:56:29;95045.75;;;38.20;37.40
6851;BME280;3464;42.728;23.296;2022-08-25T07:59:18;95035.11;;;38.26;37.20
6851;BME280;3464;42.728;23.296;2022-08-25T08:02:08;95039.05;;;38.26;37.00
6851;BME280;3464;42.728;23.296;2022-08-25T08:04:57;95039.84;;;38.43;37.08
6851;BME280;3464;42.728;23.296;2022-08-25T08:07:46;95040.53;;;38.32;37.39
6851;BME280;3464;42.728;23.296;2022-08-25T08:10:37;95038.20;;;38.50;36.78
6851;BME280;3464;42.728;23.296;2022-08-25T08:13:24;95029.23;;;38.77;36.81
6851;BME280;3464;42.728;23.296;2022-08-25T08:16:16;95024.08;;;38.76;36.78
6851;BME280;3464;42.728;23.296;2022-08-25T08:19:06;95020.15;;;39.16;36.09
6851;BME280;3464;42.728;23.296;2022-08-25T08:21:54;95016.20;;;39.24;35.79
6851;BME280;3464;42.728;23.296;2022-08-25T08:24:44;95008.06;;;39.06;36.02
6851;BME280;3464;42.728;23.296;2022-08-25T08:27:34;95014.77;;;38.81;36.17
6851;BME280;3464;42.728;23.296;2022-08-25T08:30:23;95010.91;;;38.76;36.71
6851;BME280;3464;42.728;23.296;2022-08-25T08:33:12;95006.66;;;39.03;36.10
6851;BME280;3464;42.728;23.296;2022-08-25T08:36:03;95002.70;;;39.19;36.36
6851;BME280;3464;42.728;23.296;2022-08-25T08:38:51;95006.89;;;39.76;35.43
6851;BME280;3464;42.728;23.296;2022-08-25T08:41:49;95000.42;;;40.18;34.97
6851;BME280;3464;42.728;23.296;2022-08-25T08:44:52;94998.57;;;39.49;34.85
6851;BME280;3464;42.728;23.296;2022-08-25T08:47:49;94993.99;;;39.66;34.93
6851;BME280;3464;42.728;23.296;2022-08-25T08:50:44;94997.85;;;39.27;35.26
6851;BME280;3464;42.728;23.296;2022-08-25T08:53:40;94999.83;;;39.13;35.75
6851;BME280;3464;42.728;23.296;2022-08-25T08:56:28;94999.03;;;38.56;35.83
6851;BME280;3464;42.728;23.296;2022-08-25T08:59:21;94999.54;;;38.63;35.63
6851;BME280;3464;42.728;23.296;2022-08-25T09:02:13;94999.19;;;38.22;36.17
6851;BME280;3464;42.728;23.296;2022-08-25T09:05:01;94995.13;;;38.76;34.95
6851;BME280;3464;42.728;23.296;2022-08-25T09:07:52;94991.50;;;39.25;34.18
6851;BME280;3464;42.728;23.296;2022-08-25T09:10:47;94992.05;;;39.79;33.65
6851;BME280;3464;42.728;23.296;2022-08-25T09:13:35;94999.09;;;38.26;34.69
6851;BME280;3464;42.728;23.296;2022-08-25T09:17:00;94994.41;;;37.54;34.65
6851;BME280;3464;42.728;23.296;2022-08-25T09:23:03;94993.94;;;37.20;33.98
6851;BME280;3464;42.728;23.296;2022-08-25T09:25:59;94993.47;;;36.06;35.02
6851;BME280;3464;42.728;23.296;2022-08-25T09:28:49;94987.42;;;36.76;34.38
6851;BME280;3464;42.728;23.296;2022-08-25T09:31:39;94986.12;;;36.36;35.00
6851;BME280;3464;42.728;23.296;2022-08-25T09:34:29;94977.61;;;37.64;33.71
6851;BME280;3464;42.728;23.296;2022-08-25T09:37:17;94982.75;;;37.56;33.76
6851;BME280;3464;42.728;23.296;2022-08-25T09:40:06;94984.63;;;36.51;35.38
6851;BME280;3464;42.728;23.296;2022-08-25T09:42:56;94984.14;;;37.26;34.12
6851;BME280;3464;42.728;23.296;2022-08-25T09:45:45;94979.76;;;37.94;33.54
6851;BME280;3464;42.728;23.296;2022-08-25T09:48:41;94978.53;;;38.14;32.99
6851;BME280;3464;42.728;23.296;2022-08-25T09:51:25;94986.31;;;37.47;33.90
6851;BME280;3464;42.728;23.296;2022-08-25T09:54:19;94974.17;;;36.55;35.39
6851;BME280;3464;42.728;23.296;2022-08-25T09:57:08;94975.80;;;38.10;33.97
6851;BME280;3464;42.728;23.296;2022-08-25T10:00:08;94984.77;;;38.00;33.55
6851;BME280;3464;42.728;23.296;2022-08-25T10:08:54;94982.11;;;38.82;32.93
6851;BME280;3464;42.728;23.296;2022-08-25T10:11:48;94972.07;;;38.82;32.21
6851;BME280;3464;42.728;23.296;2022-08-25T10:14:39;94983.53;;;39.26;32.61
6851;BME280;3464;42.728;23.296;2022-08-25T10:17:33;94985.86;;;36.52;33.88
6851;BME280;3464;42.728;23.296;2022-08-25T10:20:24;94980.97;;;35.58;35.13
6851;BME280;3464;42.728;23.296;2022-08-25T10:23:14;94977.39;;;35.73;33.61
6851;BME280;3464;42.728;23.296;2022-08-25T10:26:08;94973.17;;;35.07;34.09
6851;BME280;3464;42.728;23.296;2022-08-25T10:29:01;94992.63;;;33.93;36.97
6851;BME280;3464;42.728;23.296;2022-08-25T10:31:48;94974.03;;;34.69;36.15
6851;BME280;3464;42.728;23.296;2022-08-25T10:34:48;94970.25;;;34.48;36.40
6851;BME280;3464;42.728;23.296;2022-08-25T10:37:46;94967.89;;;33.97;38.00
6851;BME280;3464;42.728;23.296;2022-08-25T10:40:48;94961.30;;;35.17;36.50
6851;BME280;3464;42.728;23.296;2022-08-25T10:46:46;94967.31;;;34.18;35.69
6851;BME280;3464;42.728;23.296;2022-08-25T10:49:41;94953.96;;;35.12;35.02
6851;BME280;3464;42.728;23.296;2022-08-25T10:52:31;94959.95;;;35.13;35.25
6851;BME280;3464;42.728;23.296;2022-08-25T10:55:27;94950.09;;;35.62;34.75
6851;BME280;3464;42.728;23.296;2022-08-25T10:58:22;94951.70;;;35.72;34.75
6851;BME280;3464;42.728;23.296;2022-08-25T11:01:18;94953.73;;;36.76;33.71
6851;BME280;3464;42.728;23.296;2022-08-25T11:04:08;94948.76;;;35.85;33.90
6851;BME280;3464;42.728;23.296;2022-08-25T11:07:11;94946.77;;;34.95;35.33
6851;BME280;3464;42.728;23.296;2022-08-25T11:10:03;94953.92;;;34.84;35.32
6851;BME280;3464;42.728;23.296;2022-08-25T11:12:59;94939.28;;;34.39;36.28
6851;BME280;3464;42.728;23.296;2022-08-25T11:15:50;94946.75;;;34.33;36.50
6851;BME280;3464;42.728;23.296;2022-08-25T11:18:38;94945.28;;;34.50;36.74
6851;BME280;3464;42.728;23.296;2022-08-25T11:21:35;94943.45;;;34.93;36.11
6851;BME280;3464;42.728;23.296;2022-08-25T11:24:26;94936.12;;;34.45;36.59
6851;BME280;3464;42.728;23.296;2022-08-25T11:27:14;94935.36;;;34.87;36.09
6851;BME280;3464;42.728;23.296;2022-08-25T11:30:03;94933.97;;;34.83;36.25
6851;BME280;3464;42.728;23.296;2022-08-25T11:32:51;94928.73;;;34.92;36.32
6851;BME280;3464;42.728;23.296;2022-08-25T11:35:48;94919.49;;;35.49;35.39
6851;BME280;3464;42.728;23.296;2022-08-25T11:38:52;94921.23;;;35.44;35.61
6851;BME280;3464;42.728;23.296;2022-08-25T11:41:49;94926.77;;;34.67;36.21
6851;BME280;3464;42.728;23.296;2022-08-25T11:44:49;94910.53;;;34.44;36.40
6851;BME280;3464;42.728;23.296;2022-08-25T11:48:04;94913.91;;;34.45;36.33
6851;BME280;3464;42.728;23.296;2022-08-25T11:51:00;94907.49;;;34.34;36.88
6851;BME280;3464;42.728;23.296;2022-08-25T11:53:47;94914.20;;;35.17;35.49
6851;BME280;3464;42.728;23.296;2022-08-25T11:56:37;94907.17;;;34.80;35.37
6851;BME280;3464;42.728;23.296;2022-08-25T12:02:45;94892.04;;;35.53;34.78
6851;BME280;3464;42.728;23.296;2022-08-25T12:05:51;94888.53;;;34.79;35.60
6851;BME280;3464;42.728;23.296;2022-08-25T12:11:54;94893.14;;;35.63;34.52
6851;BME280;3464;42.728;23.296;2022-08-25T12:14:45;94884.43;;;35.95;33.98
6851;BME280;3464;42.728;23.296;2022-08-25T12:17:36;94894.94;;;35.36;34.26
6851;BME280;3464;42.728;23.296;2022-08-25T12:21:07;94899.64;;;34.10;35.81
6851;BME280;3464;42.728;23.296;2022-08-25T12:23:13;94896.72;;;34.43;35.56
6851;BME280;3464;42.728;23.296;2022-08-25T12:26:06;94895.47;;;34.98;34.85
6851;BME280;3464;42.728;23.296;2022-08-25T12:32:25;94901.92;;;34.99;34.73
6851;BME280;3464;42.728;23.296;2022-08-25T12:35:36;94896.40;;;35.07;34.44
6851;BME280;3464;42.728;23.296;2022-08-25T12:38:27;94890.19;;;35.08;34.33
6851;BME280;3464;42.728;23.296;2022-08-25T12:41:19;94892.16;;;35.43;34.28
6851;BME280;3464;42.728;23.296;2022-08-25T12:47:27;94893.44;;;35.24;34.00
6851;BME280;3464;42.728;23.296;2022-08-25T12:50:39;94892.06;;;35.30;33.57
6851;BME280;3464;42.728;23.296;2022-08-25T12:53:45;94897.48;;;34.86;34.38
6851;BME280;3464;42.728;23.296;2022-08-25T12:56:40;94900.04;;;34.15;35.26
6851;BME280;3464;42.728;23.296;2022-08-25T12:59:37;94890.65;;;34.37;34.73
6851;BME280;3464;42.728;23.296;2022-08-25T13:02:41;94895.20;;;34.35;35.06
6851;BME280;3464;42.728;23.296;2022-08-25T13:05:45;94896.50;;;34.55;34.96
6851;BME280;3464;42.728;23.296;2022-08-25T13:08:45;94904.67;;;34.27;35.18
6851;BME280;3464;42.728;23.296;2022-08-25T13:11:38;94891.09;;;34.66;34.83
6851;BME280;3464;42.728;23.296;2022-08-25T13:14:32;94915.34;;;34.44;34.39
6851;BME280;3464;42.728;23.296;2022-08-25T13:17:24;94889.92;;;34.78;34.23
6851;BME280;3464;42.728;23.296;2022-08-25T13:20:22;94888.08;;;35.07;34.02
6851;BME280;3464;42.728;23.296;2022-08-25T13:23:09;94889.20;;;35.00;34.19
6851;BME280;3464;42.728;23.296;2022-08-25T13:25:58;94891.55;;;34.98;34.35
6851;BME280;3464;42.728;23.296;2022-08-25T13:28:51;94884.17;;;34.46;34.73
6851;BME280;3464;42.728;23.296;2022-08-25T13:34:36;94889.88;;;34.55;34.01
6851;BME280;3464;42.728;23.296;2022-08-25T13:37:24;94901.80;;;34.39;34.22
6851;BME280;3464;42.728;23.296;2022-08-25T13:40:22;94894.22;;;34.65;34.55
6851;BME280;3464;42.728;23.296;2022-08-25T13:43:10;94892.00;;;35.07;33.61
6851;BME280;3464;42.728;23.296;2022-08-25T13:45:58;94900.55;;;33.86;34.97
6851;BME280;3464;42.728;23.296;2022-08-25T13:48:48;94890.80;;;33.86;35.13
6851;BME280;3464;42.728;23.296;2022-08-25T13:51:37;94898.53;;;34.27;34.45
6851;BME280;3464;42.728;23.296;2022-08-25T13:54:35;94892.88;;;34.37;33.96
6851;BME280;3464;42.728;23.296;2022-08-25T13:57:32;94903.61;;;34.67;33.69
6851;BME280;3464;42.728;23.296;2022-08-25T14:00:25;94892.66;;;33.86;34.72
6851;BME280;3464;42.728;23.296;2022-08-25T14:03:29;94894.80;;;34.45;34.47
6851;BME280;3464;42.728;23.296;2022-08-25T14:06:21;94890.56;;;34.19;34.34
6851;BME280;3464;42.728;23.296;2022-08-25T14:09:13;94899.75;;;33.70;34.95
6851;BME280;3464;42.728;23.296;2022-08-25T14:12:02;94917.12;;;33.41;35.43
6851;BME280;3464;42.728;23.296;2022-08-25T14:15:05;94910.15;;;33.46;35.52
6851;BME280;3464;42.728;23.296;2022-08-25T14:18:08;94896.61;;;33.71;35.38
6851;BME280;3464;42.728;23.296;2022-08-25T14:20:55;94903.23;;;34.28;34.69
6851;BME280;3464;42.728;23.296;2022-08-25T14:23:44;94902.77;;;33.61;35.53
6851;BME280;3464;42.728;23.296;2022-08-25T14:26:34;94897.55;;;33.36;35.60
6851;BME280;3464;42.728;23.296;2022-08-25T14:29:23;94887.99;;;33.61;35.41
6851;BME280;3464;42.728;23.296;2022-08-25T14:32:12;94890.14;;;34.14;34.93
6851;BME280;3464;42.728;23.296;2022-08-25T14:35:01;94888.28;;;33.87;35.09
6851;BME280;3464;42.728;23.296;2022-08-25T14:37:50;94889.25;;;34.10;35.10
6851;BME280;3464;42.728;23.296;2022-08-25T14:40:39;94889.00;;;34.08;35.01
6851;BME280;3464;42.728;23.296;2022-08-25T14:43:28;94887.39;;;34.35;34.83
6851;BME280;3464;42.728;23.296;2022-08-25T14:46:24;94889.77;;;35.12;33.65
6851;BME280;3464;42.728;23.296;2022-08-25T14:49:11;94888.68;;;34.40;34.39
6851;BME280;3464;42.728;23.296;2022-08-25T14:52:02;94879.45;;;34.88;34.10
6851;BME280;3464;42.728;23.296;2022-08-25T14:54:49;94871.47;;;34.14;34.85
6851;BME280;3464;42.728;23.296;2022-08-25T14:57:40;94873.78;;;34.17;34.91
6851;BME280;3464;42.728;23.296;2022-08-25T15:00:29;94876.83;;;34.36;35.12
6851;BME280;3464;42.728;23.296;2022-08-25T15:03:24;94875.08;;;34.60;34.51
6851;BME280;3464;42.728;23.296;2022-08-25T15:06:10;94867.73;;;34.59;34.87
6851;BME280;3464;42.728;23.296;2022-08-25T15:08:59;94880.03;;;34.20;35.39
6851;BME280;3464;42.728;23.296;2022-08-25T15:11:50;94883.23;;;34.14;35.67
6851;BME280;3464;42.728;23.296;2022-08-25T15:14:38;94879.47;;;33.88;35.92
6851;BME280;3464;42.728;23.296;2022-08-25T15:17:27;94883.27;;;34.32;35.54
6851;BME280;3464;42.728;23.296;2022-08-25T15:20:16;94888.48;;;33.89;35.83
6851;BME280;3464;42.728;23.296;2022-08-25T15:23:05;94888.52;;;33.35;36.61
6851;BME280;3464;42.728;23.296;2022-08-25T15:25:54;94887.50;;;33.56;36.60
6851;BME280;3464;42.728;23.296;2022-08-25T15:28:44;94887.97;;;33.85;36.19
6851;BME280;3464;42.728;23.296;2022-08-25T15:31:32;94883.95;;;34.01;36.06
6851;BME280;3464;42.728;23.296;2022-08-25T15:34:22;94875.83;;;34.66;35.11
6851;BME280;3464;42.728;23.296;2022-08-25T15:37:14;94880.20;;;34.14;35.83
6851;BME280;3464;42.728;23.296;2022-08-25T15:40:03;94883.98;;;34.48;35.46
6851;BME280;3464;42.728;23.296;2022-08-25T15:42:52;94881.34;;;33.72;36.32
6851;BME280;3464;42.728;23.296;2022-08-25T15:45:41;94885.44;;;33.84;36.06